createdAt,value
2023-01-30T00:12:52.000Z,992.25
2023-01-30T00:27:30.000Z,991.99
2023-01-30T00:42:03.000Z,991.83
2023-01-30T00:56:41.000Z,991.49
2023-01-30T01:11:16.000Z,991.45
2023-01-30T01:25:54.000Z,991.23
2023-01-30T01:40:32.000Z,990.94
2023-01-30T01:55:09.000Z,990.90
2023-01-30T02:09:49.000Z,990.91
2023-01-30T02:24:18.000Z,990.63
2023-01-30T02:38:54.000Z,990.73
2023-01-30T02:53:31.000Z,990.49
2023-01-30T03:08:09.000Z,990.24
2023-01-30T03:22:45.000Z,989.99
2023-01-30T03:37:22.000Z,989.88
2023-01-30T03:51:57.000Z,989.64
2023-01-30T04:06:33.000Z,989.48
2023-01-30T04:21:11.000Z,989.27
2023-01-30T04:35:48.000Z,989.09
2023-01-30T04:50:25.000Z,989.04
2023-01-30T05:05:03.000Z,989.00
2023-01-30T05:19:43.000Z,988.71
2023-01-30T05:34:17.000Z,988.46
2023-01-30T05:48:55.000Z,988.28
2023-01-30T06:03:32.000Z,988.28
2023-01-30T06:18:10.000Z,988.28
2023-01-30T06:32:42.000Z,988.28
2023-01-30T06:47:19.000Z,988.41
2023-01-30T07:01:58.000Z,988.73
2023-01-30T07:16:34.000Z,988.42
2023-01-30T07:31:12.000Z,988.73
2023-01-30T07:45:42.000Z,988.74
2023-01-30T08:00:20.000Z,988.63
2023-01-30T08:14:54.000Z,988.81
2023-01-30T08:29:31.000Z,988.69
2023-01-30T08:44:10.000Z,988.56
2023-01-30T08:58:50.000Z,988.68
2023-01-30T09:13:27.000Z,988.76
2023-01-30T09:28:05.000Z,988.81
2023-01-30T09:42:43.000Z,988.81
2023-01-30T09:57:13.000Z,988.73
2023-01-30T10:11:50.000Z,988.75
2023-01-30T10:26:26.000Z,988.69
2023-01-30T10:41:04.000Z,988.47
2023-01-30T10:55:42.000Z,988.54
2023-01-30T11:10:26.000Z,988.46
2023-01-30T11:25:00.000Z,988.61
2023-01-30T11:39:37.000Z,988.55
2023-01-30T11:54:12.000Z,988.60
2023-01-30T12:08:52.000Z,988.34
2023-01-30T12:23:29.000Z,988.26
2023-01-30T12:38:09.000Z,988.22
2023-01-30T12:52:47.000Z,988.33
2023-01-30T13:07:24.000Z,988.49
2023-01-30T13:22:00.000Z,988.78
2023-01-30T13:36:37.000Z,988.79
2023-01-30T13:51:14.000Z,988.99
2023-01-30T14:05:56.000Z,989.17
2023-01-30T14:20:33.000Z,989.47
2023-01-30T14:35:10.000Z,989.67
2023-01-30T14:49:46.000Z,989.92
2023-01-30T15:04:23.000Z,990.04
2023-01-30T15:19:00.000Z,990.35
2023-01-30T15:33:38.000Z,990.50
2023-01-30T15:48:15.000Z,990.62
2023-01-30T16:02:53.000Z,990.86
2023-01-30T16:17:32.000Z,991.07
2023-01-30T16:32:09.000Z,991.38
2023-01-30T16:46:45.000Z,991.61
2023-01-30T17:01:22.000Z,991.82
2023-01-30T17:15:59.000Z,991.95
2023-01-30T17:30:38.000Z,992.19
2023-01-30T17:45:16.000Z,992.28
2023-01-30T17:59:54.000Z,992.33
2023-01-30T18:14:32.000Z,992.40
2023-01-30T18:29:10.000Z,992.79
2023-01-30T18:43:48.000Z,993.01
2023-01-30T18:58:24.000Z,993.05
2023-01-30T19:13:02.000Z,993.30
2023-01-30T19:27:39.000Z,993.41
2023-01-30T19:42:16.000Z,993.62
2023-01-30T19:56:54.000Z,993.79
2023-01-30T20:11:32.000Z,993.89
2023-01-30T20:26:10.000Z,994.00
2023-01-30T20:40:46.000Z,994.42
2023-01-30T20:55:22.000Z,994.60
2023-01-30T21:09:59.000Z,994.95
2023-01-30T21:24:35.000Z,995.10
2023-01-30T21:39:12.000Z,995.21
2023-01-30T21:53:49.000Z,995.31
2023-01-30T22:08:23.000Z,995.49
2023-01-30T22:23:01.000Z,995.38
2023-01-30T22:37:39.000Z,995.41
2023-01-30T22:52:12.000Z,995.64
2023-01-30T23:06:50.000Z,995.53
2023-01-30T23:21:26.000Z,995.61
2023-01-30T23:36:03.000Z,995.82
2023-01-30T23:50:35.000Z,995.86
